Latest Weather Observations for Williamtown

IDN60901

Issued at 11:41 am EST Monday 23 July 2018 (issued every 10 minutes, with the page automatically refreshed every 10 minutes)

About weather observations | Map of Sydney area stations | Latest observations for Sydney area | Other Formats
Station Details ID: 061078 Name: WILLIAMTOWN RAAF Lat: -32.79 Lon: 151.84 Height: 7.5 m
Data from the previous 72 hours. | See also: Recent months at Williamtown
Date/Time
EST
Temp
°C
App
Temp
°C
Dew
Point
°C
Rel
Hum
%
Delta-T
°C
Wind Press
QNH
hPa
Press
MSL
hPa
Rain since
9am
mm
Dir  Spd
km/h
Gust
km/h
Spd
kts
Gust
kts
23/11:30am 13.9 8.9 1.5 43 5.3 NW 17 20 9 11 1019.1 1019.1 0.0
23/11:00am 12.7 8.3 2.8 51 4.3 NW 15 20 8 11 1019.7 1019.7 0.0
23/10:30am 11.3 5.5 2.3 54 3.9 NW 22 30 12 16 1020.2 1020.2 0.0
23/10:00am 10.0 4.2 2.1 58 3.3 NW 22 28 12 15 1020.6 1020.6 0.0
23/09:30am 9.0 3.8 2.3 63 2.8 NW 19 26 10 14 1020.7 1020.7 0.0
23/09:00am 6.9 2.5 2.6 74 1.8 NW 15 19 8 10 1020.8 1020.8 0.0
23/08:30am 5.4 1.1 3.4 87 0.8 WNW 15 17 8 9 1020.9 1020.9 0.0
23/08:00am 3.9 -0.5 2.9 93 0.4 WNW 15 19 8 10 1020.8 1020.8 0.0
23/07:30am 2.4 -2.2 1.7 95 0.3 NW 15 15 8 8 1020.6 1020.6 0.0
23/07:00am 1.8 -2.5 1.2 96 0.2 NW 13 13 7 7 1020.5 1020.5 0.0
23/06:30am 2.4 -1.0 1.8 96 0.2 NW 9 9 5 5 1020.4 1020.4 0.0
23/06:00am 1.8 -2.1 1.1 95 0.3 NW 11 11 6 6 1020.3 1020.3 0.0
23/05:30am 2.2 -1.6 1.5 95 0.3 NNW 11 11 6 6 1020.3 1020.3 0.0
23/05:00am 2.1 -1.8 1.4 95 0.3 WNW 11 11 6 6 1020.2 1020.2 0.0
23/04:30am 0.9 -2.9 -0.4 91 0.5 NW 9 11 5 6 1020.3 1020.3 0.0
23/04:00am 2.8 -0.5 2.2 96 0.2 NW 9 11 5 6 1020.2 1020.2 0.0
23/03:30am 2.5 -0.9 1.9 96 0.2 NW 9 13 5 7 1020.4 1020.4 0.0
23/03:00am 1.1 -2.6 0.1 93 0.4 WNW 9 11 5 6 1020.5 1020.5 0.0
23/02:30am 1.4 -0.5 0.4 93 0.4 CALM 0 0 0 0 1020.5 1020.5 0.0
23/02:00am 1.8 -0.1 0.8 93 0.4 CALM 0 0 0 0 1020.6 1020.6 0.0
23/01:30am 2.0 0.2 1.0 93 0.4 CALM 0 0 0 0 1020.9 1020.9 0.0
23/01:00am 2.5 0.7 1.5 93 0.4 CALM 0 0 0 0 1021.1 1021.1 0.0
23/12:30am 3.2 0.4 1.9 91 0.5 NNE 6 6 3 3 1021.4 1021.4 0.0
23/12:00am 3.0 1.2 1.5 90 0.6 CALM 0 0 0 0 1021.7 1021.7 0.0
 
Date/Time
EST
Temp
°C
App
Temp
°C
Dew
Point
°C
Rel
Hum
%
Delta-T
°C
Wind Press
QNH
hPa
Press
MSL
hPa
Rain since
9am
mm
Dir  Spd
km/h
Gust
km/h
Spd
kts
Gust
kts
22/11:30pm 3.6 1.6 2.1 90 0.6 NNE 2 6 1 3 1021.8 1021.8 0.0
22/11:00pm 3.7 1.7 2.2 90 0.6 NNE 2 6 1 3 1021.9 1021.9 0.0
22/10:30pm 4.5 3.0 2.8 89 0.7 CALM 0 0 0 0 1022.0 1022.0 0.0
22/10:00pm 4.3 2.7 2.7 89 0.6 CALM 0 0 0 0 1021.9 1021.9 0.0
22/09:30pm 5.0 3.5 3.2 88 0.7 CALM 0 0 0 0 1022.1 1022.1 0.0
22/09:00pm 5.6 4.2 3.3 85 1.0 CALM 0 0 0 0 1022.1 1022.1 0.0
22/08:30pm 5.8 4.3 3.0 82 1.2 CALM 0 0 0 0 1022.1 1022.1 0.0
22/08:00pm 7.3 4.7 3.4 76 1.6 NNE 6 9 3 5 1021.9 1021.9 0.0
22/07:30pm 9.5 7.1 5.1 74 2.0 NE 7 9 4 5 1021.7 1021.7 0.0
22/07:00pm 9.9 7.4 4.5 69 2.4 ENE 7 9 4 5 1021.5 1021.5 0.0
22/06:30pm 10.9 8.4 4.8 66 2.8 ENE 7 11 4 6 1021.2 1021.2 0.0
22/06:00pm 11.5 8.6 4.5 62 3.1 ENE 9 13 5 7 1021.1 1021.1 0.0
22/05:30pm 12.8 9.1 4.5 57 3.8 ENE 13 15 7 8 1020.9 1020.9 0.0
22/05:00pm 13.6 10.7 4.5 54 4.2 ENE 9 13 5 7 1020.8 1020.8 0.0
22/04:30pm 14.6 10.9 4.3 50 4.8 E 13 17 7 9 1020.9 1020.9 0.0
22/04:00pm 15.3 11.5 3.8 46 5.3 E 13 19 7 10 1021.0 1021.0 0.0
22/03:30pm 16.6 12.6 0.3 33 7.0 ESE 11 22 6 12 1020.9 1020.9 0.0
22/03:00pm 17.0 13.8 -0.2 31 7.3 N 6 13 3 7 1020.8 1020.8 0.0
22/02:30pm 16.2 12.8 -0.5 32 7.1 NNE 7 15 4 8 1021.1 1021.1 0.0
22/02:00pm 16.4 12.3 -0.3 32 7.1 NNE 11 15 6 8 1021.5 1021.5 0.0
22/01:30pm 16.3 11.8 0.0 33 7.0 NE 13 19 7 10 1021.7 1021.7 0.0
22/01:00pm 16.6 13.3 2.6 39 6.3 NNE 9 17 5 9 1022.1 1022.1 0.0
22/12:30pm 16.2 13.3 2.6 40 6.1 NNW 7 13 4 7 1022.7 1022.7 0.0
22/12:00pm 14.8 11.3 1.0 39 5.9 NNW 9 13 5 7 1023.4 1023.4 0.0
22/11:30am 13.5 10.1 1.8 45 5.1 NNW 9 15 5 8 1024.0 1024.0 0.0
22/11:00am 12.2 8.8 1.8 49 4.4 NW 9 15 5 8 1024.5 1024.5 0.0
22/10:30am 10.6 6.0 1.4 53 3.8 NW 15 19 8 10 1025.0 1025.0 0.0
22/10:00am 9.9 4.9 1.3 55 3.5 WNW 17 20 9 11 1025.3 1025.3 0.0
22/09:30am 8.6 3.6 1.1 59 3.0 WNW 17 20 9 11 1025.6 1025.6 0.0
22/09:00am 6.9 2.3 1.4 68 2.2 NW 15 17 8 9 1025.6 1025.6 0.0
22/08:30am 5.8 1.6 1.7 75 1.6 WNW 13 17 7 9 1025.7 1025.7 0.0
22/08:00am 4.4 -0.2 1.6 82 1.1 NW 15 17 8 9 1025.4 1025.4 0.0
22/07:30am 2.5 -0.7 0.9 89 0.6 NW 7 9 4 5 1025.3 1025.3 0.0
22/07:00am 2.2 -1.7 1.0 92 0.4 NW 11 13 6 7 1025.1 1025.1 0.0
22/06:30am 1.5 -2.9 0.5 93 0.4 NW 13 15 7 8 1024.9 1024.9 0.0
22/06:00am 1.5 -2.9 0.5 93 0.4 NW 13 15 7 8 1024.5 1024.5 0.0
22/05:30am 1.1 -3.3 0.1 93 0.4 NW 13 15 7 8 1024.3 1024.3 0.0
22/05:00am 0.2 -2.3 -1.2 90 0.5 NNE 2 7 1 4 1024.2 1024.2 0.0
22/04:30am 0.6 -1.6 -1.5 86 0.8 CALM 0 0 0 0 1024.0 1024.0 0.0
22/04:00am 2.6 -0.3 1.3 91 0.5 NNW 6 7 3 4 1023.9 1023.9 0.0
22/03:30am 1.0 -1.1 -0.8 88 0.6 CALM 0 0 0 0 1024.0 1024.0 0.0
22/03:00am 2.1 -0.1 1.1 93 0.4 NW 2 6 1 3 1023.9 1023.9 0.0
22/02:30am 1.6 -1.6 0.6 93 0.4 WNW 7 9 4 5 1023.9 1023.9 0.0
22/02:00am 1.7 -0.2 0.7 93 0.4 CALM 0 0 0 0 1023.8 1023.8 0.0
22/01:30am 1.4 -1.9 0.2 92 0.4 WNW 7 7 4 4 1023.8 1023.8 0.0
22/01:00am 1.6 -0.7 0.3 91 0.5 WNW 2 7 1 4 1023.9 1023.9 0.0
22/12:30am 2.1 0.2 0.8 91 0.5 CALM 0 0 0 0 1023.6 1023.6 0.0
22/12:00am 2.1 0.2 0.5 89 0.6 CALM 0 0 0 0 1023.6 1023.6 0.0
 
Date/Time
EST
Temp
°C
App
Temp
°C
Dew
Point
°C
Rel
Hum
%
Delta-T
°C
Wind Press
QNH
hPa
Press
MSL
hPa
Rain since
9am
mm
Dir  Spd
km/h
Gust
km/h
Spd
kts
Gust
kts
21/11:30pm 2.9 1.2 1.7 92 0.5 CALM 0 0 0 0 1023.7 1023.7 0.0
21/11:00pm 2.5 -0.1 0.7 88 0.7 NW 4 9 2 5 1023.8 1023.8 0.0
21/10:30pm 3.2 1.4 1.3 87 0.7 CALM 0 0 0 0 1023.6 1023.6 0.0
21/10:00pm 4.0 1.5 1.5 84 1.0 SE 4 7 2 4 1023.4 1023.4 0.0
21/09:30pm 4.2 2.5 1.7 84 1.0 CALM 0 0 0 0 1023.5 1023.5 0.0
21/09:00pm 4.3 2.2 1.8 84 1.0 NNW 2 9 1 5 1023.4 1023.4 0.0
21/08:30pm 5.3 3.4 2.7 83 1.1 N 2 6 1 3 1023.3 1023.3 0.0
21/08:00pm 5.4 3.8 2.2 80 1.3 CALM 0 0 0 0 1023.3 1023.3 0.0
21/07:30pm 6.0 3.6 2.1 76 1.6 SE 4 6 2 3 1023.0 1023.0 0.0
21/07:00pm 6.7 4.3 2.2 73 1.8 SE 4 7 2 4 1022.8 1022.8 0.0
21/06:30pm 7.8 6.3 3.1 72 2.0 CALM 0 7 0 4 1022.5 1022.5 0.0
21/06:00pm 10.1 8.1 2.5 59 3.2 ENE 2 9 1 5 1022.3 1022.3 0.0
21/05:30pm 11.5 8.4 1.2 49 4.3 E 7 9 4 5 1022.0 1022.0 0.0
21/05:00pm 13.5 10.4 1.2 43 5.2 SE 7 9 4 5 1021.9 1021.9 0.0
21/04:30pm 14.6 11.5 0.1 37 6.1 SE 6 9 3 5 1021.6 1021.6 0.0
21/04:00pm 16.0 11.7 -2.0 29 7.3 W 11 15 6 8 1021.4 1021.4 0.0
21/03:30pm 16.2 11.6 -1.4 30 7.3 WSW 13 19 7 10 1021.3 1021.3 0.0
21/03:00pm 16.2 11.2 -1.4 30 7.3 WNW 15 26 8 14 1021.0 1021.0 0.0
21/02:30pm 16.0 10.6 -1.5 30 7.2 WNW 17 28 9 15 1020.8 1020.8 0.0
21/02:00pm 16.0 10.6 -1.5 30 7.2 W 17 24 9 13 1020.9 1020.9 0.0
21/01:30pm 15.9 11.3 -1.2 31 7.1 SW 13 24 7 13 1020.9 1020.9 0.0
21/01:00pm 15.8 10.8 -1.3 31 7.0 WSW 15 30 8 16 1021.1 1021.1 0.0
21/12:30pm 15.9 10.1 0.1 34 6.7 W 20 30 11 16 1021.4 1021.4 0.0
21/12:00pm 14.8 8.5 -0.9 34 6.5 WNW 22 32 12 17 1021.7 1021.7 0.0
21/11:30am 14.7 7.7 -0.2 36 6.2 W 26 32 14 17 1022.3 1022.3 0.0
21/11:00am 13.9 6.9 -0.5 37 5.9 WNW 26 33 14 18 1022.6 1022.6 0.0
21/10:30am 13.4 5.7 0.1 40 5.5 WNW 30 41 16 22 1022.8 1022.8 0.0
21/10:00am 12.6 4.6 0.4 43 5.1 WNW 32 41 17 22 1022.6 1022.6 0.0
21/09:30am 12.0 4.4 0.8 46 4.7 WNW 30 43 16 23 1022.4 1022.4 0.0
21/09:00am 11.0 3.8 0.7 49 4.2 WNW 28 37 15 20 1022.2 1022.2 0.0
21/08:30am 9.7 3.7 0.9 54 3.6 WNW 22 28 12 15 1021.8 1021.8 0.0
21/08:00am 8.0 2.6 1.0 61 2.8 NW 19 28 10 15 1021.2 1021.2 0.0
21/07:30am 6.1 1.8 0.9 69 2.0 NW 13 17 7 9 1021.1 1021.1 0.0
21/07:00am 5.4 1.4 0.6 71 1.9 NW 11 11 6 6 1021.0 1021.0 0.0
21/06:30am 4.6 0.2 0.4 74 1.6 WNW 13 15 7 8 1020.7 1020.7 0.0
21/06:00am 4.9 0.4 -0.3 69 2.0 WNW 13 15 7 8 1020.2 1020.2 0.0
21/05:30am 6.7 1.6 0.6 65 2.4 WNW 17 20 9 11 1019.8 1019.8 0.0
21/05:00am 6.1 1.0 0.9 69 2.0 WNW 17 20 9 11 1019.7 1019.7 0.0
21/04:30am 7.2 1.7 0.9 64 2.5 WNW 19 26 10 14 1019.4 1019.4 0.0
21/04:00am 7.0 2.3 0.9 65 2.4 WNW 15 19 8 10 1019.3 1019.3 0.0
21/03:30am 7.8 2.3 0.8 61 2.8 WNW 19 28 10 15 1019.3 1019.3 0.0
21/03:00am 7.0 2.3 0.7 64 2.5 WNW 15 19 8 10 1019.0 1019.0 0.0
21/02:30am 7.3 2.9 0.5 62 2.7 WNW 13 19 7 10 1018.9 1018.9 0.0
21/02:00am 8.0 2.9 0.7 60 2.9 WNW 17 24 9 13 1018.7 1018.7 0.0
21/01:30am 8.5 3.8 0.7 58 3.1 NW 15 19 8 10 1018.6 1018.6 0.0
21/01:00am 9.2 4.1 0.9 56 3.4 WNW 17 26 9 14 1018.3 1018.3 0.0
21/12:30am 9.7 4.1 0.9 54 3.6 NW 20 28 11 15 1018.3 1018.3 0.0
21/12:00am 9.7 2.6 1.1 55 3.5 WNW 28 33 15 18 1018.1 1018.1 0.0
 
Date/Time
EST
Temp
°C
App
Temp
°C
Dew
Point
°C
Rel
Hum
%
Delta-T
°C
Wind Press
QNH
hPa
Press
MSL
hPa
Rain since
9am
mm
Dir  Spd
km/h
Gust
km/h
Spd
kts
Gust
kts
20/11:30pm 10.0 2.9 1.4 55 3.6 WNW 28 41 15 22 1017.6 1017.6 0.0
20/11:00pm 9.9 3.9 1.0 54 3.6 WNW 22 30 12 16 1017.2 1017.2 0.0
20/10:30pm 10.2 3.9 1.3 54 3.7 WNW 24 35 13 19 1016.9 1016.9 0.0
20/10:00pm 10.4 2.9 1.2 53 3.8 WNW 30 39 16 21 1016.9 1016.9 0.0
20/09:30pm 10.6 2.7 1.2 52 3.9 WNW 32 39 17 21 1016.3 1016.3 0.0
20/09:00pm 10.7 4.0 1.3 52 3.9 WNW 26 33 14 18 1016.5 1016.5 0.0
20/08:30pm 11.4 3.7 0.2 46 4.6 WNW 30 41 16 22 1016.0 1016.0 0.0
20/08:19pm 11.5 3.9 0.3 46 4.6 WNW 30 48 16 26 1015.9 1015.9 0.0
20/08:00pm 11.6 3.5 1.0 48 4.4 WNW 33 46 18 25 1015.5 1015.5 0.0
20/07:30pm 11.7 3.9 1.4 49 4.3 WNW 32 46 17 25 1015.1 1015.1 0.0
20/07:00pm 12.2 4.7 1.2 47 4.6 WNW 30 43 16 23 1015.0 1015.0 0.0
20/06:30pm 13.0 5.0 0.4 42 5.3 WNW 32 41 17 22 1014.3 1014.3 0.0
20/06:00pm 12.9 6.5 -1.4 37 5.7 WNW 22 32 12 17 1013.7 1013.7 0.0
20/05:30pm 14.0 7.2 -2.0 33 6.4 W 24 32 13 17 1012.9 1012.9 0.0
20/05:00pm 14.9 6.5 -2.5 30 7.0 W 32 46 17 25 1012.2 1012.2 0.0
20/04:30pm 15.9 7.4 -2.1 29 7.3 W 33 46 18 25 1011.4 1011.4 0.0
20/04:10pm 16.4 7.9 -2.1 28 7.6 W 33 52 18 28 1010.9 1010.9 0.0
20/04:00pm 16.7 8.3 -1.4 29 7.5 W 33 46 18 25 1010.8 1010.8 0.0
20/03:30pm 17.2 8.0 -1.4 28 7.8 W 37 57 20 31 1010.0 1010.0 0.0
20/03:00pm 17.4 6.5 -1.3 28 7.9 W 46 74 25 40 1009.2 1009.2 0.0
20/02:35pm 18.5 8.2 -0.8 27 8.3 WSW 43 61 23 33 1008.5 1008.5 0.0
20/02:30pm 18.3 8.8 -0.5 28 8.1 WSW 39 56 21 30 1008.2 1008.3 0.0
20/02:16pm 19.5 9.7 0.0 27 8.6 W 41 74 22 40 1007.6 1007.6 0.0
20/02:00pm 19.6 8.4 -0.4 26 8.8 WNW 48 67 26 36 1006.9 1006.9 0.0
20/01:37pm 19.8 7.5 -0.2 26 8.8 WNW 54 72 29 39 1006.3 1006.3 0.0
20/01:30pm 19.5 6.7 -1.0 25 8.8 WNW 56 72 30 39 1006.1 1006.1 0.0
20/01:01pm 19.8 8.6 -0.8 25 8.9 NW 48 69 26 37 1005.5 1005.5 0.0
20/01:00pm 19.9 8.7 -0.7 25 9.0 NW 48 65 26 35 1005.7 1005.7 0.0
20/12:30pm 20.7 10.1 -1.8 22 9.6 WNW 44 65 24 35 1005.9 1005.9 0.0
20/12:05pm 21.0 10.3 0.2 25 9.3 NW 46 65 25 35 1005.6 1005.6 0.0
20/12:00pm 20.9 10.2 0.2 25 9.3 NW 46 59 25 32 1005.5 1005.5 0.0

Latest Capital City Observations: Canberra | Sydney | Melbourne | Brisbane | Adelaide | Perth | Hobart | Darwin

Other Formats:

Comma delimited format used in spreadsheet applications
http://www.bom.gov.au/fwo/IDN60901/IDN60901.94776.axf

JavaScript Object Notation format (JSON) in row-major order
http://www.bom.gov.au/fwo/IDN60901/IDN60901.94776.json